Time;durP1;ratioP1;P1;durP2;ratioP2;P2;SDS_P1;SDS_P2;PMS_P1;PMS_P2;Temp;Humidity;BMP_temperature;BMP_pressure;BME280_temperature;BME280_humidity;BME280_pressure;Samples;Min_cycle;Max_cycle;Signal;HPM_P1;HPM_P2
2022/10/12 00:00:51;;;;;;;13.43;8.93;;;;;;;15.53;100.00;102103.88;2064286;28;20240;-61
2022/10/12 00:01:52;;;;;;;11.07;9.03;;;;;;;15.99;100.00;102167.19;2064358;28;20230;-61
2022/10/12 00:02:52;;;;;;;14.57;8.93;;;;;;;15.99;100.00;102170.78;2063922;28;20230;-61
2022/10/12 00:03:53;;;;;;;11.33;8.47;;;;;;;15.99;100.00;102172.78;2064029;28;20961;-62
2022/10/12 00:04:53;;;;;;;10.33;8.83;;;;;;;15.98;100.00;102169.19;2064171;28;20780;-62
2022/10/12 00:06:09;;;;;;;11.30;8.67;;;;;;;15.98;100.00;102169.19;2064164;28;20240;-61
2022/10/12 00:07:09;;;;;;;11.60;8.30;;;;;;;15.98;100.00;102174.03;2063630;28;20217;-61
2022/10/12 00:08:10;;;;;;;11.83;8.37;;;;;;;15.97;100.00;102172.41;2064866;28;20421;-61
2022/10/12 00:09:10;;;;;;;11.97;8.43;;;;;;;15.89;100.00;102162.63;2064214;28;20202;-62
2022/10/12 00:10:11;;;;;;;10.83;8.07;;;;;;;15.94;100.00;102170.50;2064094;28;20194;-62
2022/10/12 00:11:15;;;;;;;9.80;7.80;;;;;;;15.77;100.00;102164.06;2064232;28;20225;-62
2022/10/12 00:12:15;;;;;;;11.53;7.77;;;;;;;15.56;100.00;102116.19;2063865;28;20201;-62
2022/10/12 00:13:16;;;;;;;12.13;7.90;;;;;;;15.92;100.00;102173.72;2063877;28;20488;-62
2022/10/12 00:14:16;;;;;;;13.17;7.80;;;;;;;15.60;100.00;102126.09;2064151;28;20190;-61
2022/10/12 00:15:17;;;;;;;12.30;8.37;;;;;;;15.91;100.00;102168.56;2064192;28;20210;-61
2022/10/12 00:16:19;;;;;;;10.33;8.10;;;;;;;15.89;100.00;102162.63;2063632;28;20193;-61
2022/10/12 00:17:20;;;;;;;11.67;8.40;;;;;;;15.86;100.00;102167.06;2064618;28;20202;-61
2022/10/12 00:18:20;;;;;;;13.17;8.50;;;;;;;15.85;100.00;102167.50;2064100;28;20481;-61
2022/10/12 00:19:21;;;;;;;11.53;7.83;;;;;;;15.82;100.00;102169.16;2064267;28;20206;-61
2022/10/12 00:20:21;;;;;;;11.50;8.30;;;;;;;15.77;100.00;102169.66;2064123;28;20208;-61
2022/10/12 00:21:23;;;;;;;11.77;7.83;;;;;;;15.75;100.00;102171.31;2064409;28;20204;-61
2022/10/12 00:22:23;;;;;;;11.33;7.83;;;;;;;15.73;100.00;102174.50;2062647;28;20199;-61
2022/10/12 00:23:24;;;;;;;11.83;8.00;;;;;;;15.75;100.00;102177.69;2063917;28;20541;-61
2022/10/12 00:24:24;;;;;;;11.20;8.60;;;;;;;15.76;100.00;102170.88;2063946;28;20228;-61
2022/10/12 00:25:25;;;;;;;12.90;7.37;;;;;;;15.76;100.00;102170.06;2064766;28;20190;-61
2022/10/12 00:26:27;;;;;;;11.53;7.63;;;;;;;15.74;100.00;102169.72;2064180;28;20201;-61
2022/10/12 00:27:27;;;;;;;12.77;7.53;;;;;;;15.73;100.00;102168.94;2064324;28;20685;-61
2022/10/12 00:28:27;;;;;;;10.83;7.70;;;;;;;15.74;100.00;102172.53;2063993;28;20827;-61
2022/10/12 00:29:28;;;;;;;11.70;7.90;;;;;;;15.75;100.00;102168.50;2064672;28;20190;-61
2022/10/12 00:30:29;;;;;;;11.43;7.63;;;;;;;15.73;100.00;102163.34;2063840;28;20237;-61
2022/10/12 00:31:30;;;;;;;14.23;7.87;;;;;;;15.76;100.00;102173.66;2064417;28;20186;-61
2022/10/12 00:32:31;;;;;;;10.30;8.23;;;;;;;15.77;100.00;102160.50;2063662;28;20528;-61
2022/10/12 00:33:31;;;;;;;10.40;7.67;;;;;;;15.78;100.00;102167.66;2064635;28;20943;-61
2022/10/12 00:34:32;;;;;;;13.13;7.70;;;;;;;15.79;100.00;102172.03;2063997;28;20197;-61
2022/10/12 00:35:32;;;;;;;10.87;7.70;;;;;;;15.78;100.00;102164.88;2064194;28;20189;-61
2022/10/12 00:36:34;;;;;;;13.87;7.80;;;;;;;15.77;100.00;102168.88;2064043;28;20205;-61
2022/10/12 00:37:35;;;;;;;11.20;7.87;;;;;;;15.77;100.00;102161.25;2063838;28;20575;-61
2022/10/12 00:38:35;;;;;;;9.80;7.63;;;;;;;15.77;100.00;102155.69;2063822;28;20761;-61
2022/10/12 00:39:36;;;;;;;10.83;7.57;;;;;;;15.75;100.00;102162.91;2064044;28;20186;-61
2022/10/12 00:40:36;;;;;;;12.20;8.03;;;;;;;15.74;100.00;102161.34;2064891;28;20212;-61
2022/10/12 00:41:40;;;;;;;13.40;7.80;;;;;;;15.70;100.00;102158.63;2064857;28;20183;-61
2022/10/12 00:42:40;;;;;;;24.13;9.70;;;;;;;15.66;100.00;102163.50;2064059;28;20681;-61
2022/10/12 00:43:42;;;;;;;23.93;8.83;;;;;;;15.67;100.00;102164.28;2064017;28;20445;-61
2022/10/12 00:44:45;;;;;;;18.70;8.20;;;;;;;15.54;100.00;102147.38;2063977;28;20191;-61
2022/10/12 00:45:45;;;;;;;17.43;7.97;;;;;;;15.62;100.00;102151.59;2064030;28;20476;-61
2022/10/12 00:46:46;;;;;;;10.80;6.87;;;;;;;15.64;100.00;102165.94;2063684;28;20453;-61
2022/10/12 00:47:53;;;;;;;16.57;8.07;;;;;;;15.63;100.00;102169.16;2064218;28;20202;-61
2022/10/12 00:48:59;;;;;;;17.93;8.27;;;;;;;15.63;100.00;102169.94;2063874;28;20234;-61
2022/10/12 00:50:24;;;;;;;16.50;8.37;;;;;;;15.59;100.00;102163.66;2063593;28;20429;-61
2022/10/12 00:51:25;;;;;;;17.33;8.23;;;;;;;15.22;100.00;102107.28;2064207;28;20843;-61
2022/10/12 00:52:31;;;;;;;15.80;8.13;;;;;;;15.55;100.00;102157.34;2063455;28;20448;-61
2022/10/12 00:53:39;;;;;;;17.50;8.03;;;;;;;15.27;100.00;102117.97;2067256;28;20187;-61
2022/10/12 00:54:44;;;;;;;17.70;8.20;;;;;;;15.54;100.00;102163.34;2063999;28;20496;-61
2022/10/12 00:55:52;;;;;;;10.50;8.07;;;;;;;15.54;100.00;102160.56;2064026;28;20953;-61
2022/10/12 00:56:55;;;;;;;12.07;8.27;;;;;;;15.53;100.00;102164.56;2063796;28;20460;-61
2022/10/12 00:57:57;;;;;;;12.37;8.30;;;;;;;15.51;100.00;102169.78;2063558;28;20477;-61
2022/10/12 00:59:01;;;;;;;14.57;8.60;;;;;;;15.51;100.00;102164.19;2063706;28;20981;-61
2022/10/12 01:00:06;;;;;;;13.43;8.30;;;;;;;15.52;100.00;102165.78;2064351;28;20466;-61
2022/10/12 01:01:07;;;;;;;12.87;8.53;;;;;;;15.50;100.00;102157.84;2064073;28;20512;-61
2022/10/12 01:02:07;;;;;;;15.37;8.87;;;;;;;15.41;100.00;102157.59;2063772;28;20646;-62
2022/10/12 01:03:12;;;;;;;17.40;8.47;;;;;;;15.37;100.00;102158.91;2063511;28;20194;-62
2022/10/12 01:04:12;;;;;;;16.70;8.50;;;;;;;15.39;100.00;102162.03;2063691;28;20711;-62
2022/10/12 01:05:14;;;;;;;16.10;8.63;;;;;;;15.40;100.00;102163.63;2063727;28;20786;-62
2022/10/12 01:06:15;;;;;;;16.43;8.70;;;;;;;15.40;100.00;102163.63;2063743;28;21476;-62
2022/10/12 01:07:16;;;;;;;15.80;8.20;;;;;;;15.31;100.00;102150.19;2064062;28;20436;-62
2022/10/12 01:08:16;;;;;;;29.13;9.47;;;;;;;15.37;100.00;102159.66;2063694;28;21770;-62
2022/10/12 01:09:18;;;;;;;22.10;8.63;;;;;;;15.40;100.00;102161.63;2064692;28;20186;-61
2022/10/12 01:10:19;;;;;;;14.90;7.97;;;;;;;15.33;100.00;102161.78;2063112;28;20252;-61
2022/10/12 01:11:19;;;;;;;15.80;7.93;;;;;;;15.35;100.00;102166.91;2064039;28;20531;-61
2022/10/12 01:12:21;;;;;;;16.83;9.60;;;;;;;14.93;100.00;102101.47;2063359;28;20252;-61
2022/10/12 01:13:22;;;;;;;19.13;8.93;;;;;;;15.33;100.00;102164.56;2063585;28;20813;-61
2022/10/12 01:14:23;;;;;;;15.93;8.63;;;;;;;15.36;100.00;102160.91;2063751;28;20887;-61
2022/10/12 01:15:28;;;;;;;17.47;9.00;;;;;;;15.34;100.00;102163.34;2063750;28;20205;-61
2022/10/12 01:16:51;;;;;;;17.37;8.70;;;;;;;15.35;100.00;102164.91;2063598;28;20943;-61
2022/10/12 01:18:02;;;;;;;16.53;8.27;;;;;;;15.33;100.00;102156.19;2063775;28;21228;-61
2022/10/12 01:19:24;;;;;;;18.63;9.03;;;;;;;15.36;100.00;102160.13;2063865;28;20444;-62
2022/10/12 01:20:42;;;;;;;17.37;8.47;;;;;;;15.37;100.00;102161.69;2063494;28;20472;-62
2022/10/12 01:22:03;;;;;;;13.63;7.93;;;;;;;15.38;100.00;102164.03;2064102;28;20445;-62
2022/10/12 01:23:16;;;;;;;11.40;7.63;;;;;;;15.38;100.00;102163.28;2063111;28;21438;-62
2022/10/12 01:24:42;;;;;;;12.20;8.27;;;;;;;15.37;100.00;102168.06;2064276;28;20433;-62
2022/10/12 01:26:24;;;;;;;12.43;7.60;;;;;;;15.29;100.00;102147.03;2063550;28;20516;-62
2022/10/12 01:27:39;;;;;;;14.37;8.33;;;;;;;15.35;100.00;102161.31;2063682;28;20452;-61
2022/10/12 01:28:55;;;;;;;10.83;7.47;;;;;;;15.37;100.00;102156.09;2063695;28;20456;-61
2022/10/12 01:30:09;;;;;;;10.87;7.87;;;;;;;15.38;100.00;102163.28;2064214;28;20413;-63
2022/10/12 01:31:23;;;;;;;12.43;7.90;;;;;;;15.38;100.00;102152.88;2063443;28;20837;-64
2022/10/12 01:33:02;;;;;;;14.43;8.03;;;;;;;15.39;100.00;102157.25;2062582;28;20428;-64
2022/10/12 01:34:11;;;;;;;10.03;8.00;;;;;;;15.39;100.00;102165.63;2063260;28;20504;-64
2022/10/12 01:35:41;;;;;;;10.93;7.80;;;;;;;15.40;100.00;102169.19;2061847;28;20530;-64
2022/10/12 01:37:02;;;;;;;10.33;8.30;;;;;;;15.39;100.00;102171.22;2062581;28;20934;-64
2022/10/12 01:38:29;;;;;;;15.73;8.03;;;;;;;15.39;100.00;102167.63;2062962;28;20465;-64
2022/10/12 01:39:37;;;;;;;13.47;7.93;;;;;;;15.40;100.00;102177.59;2063527;28;20428;-64
2022/10/12 01:40:50;;;;;;;12.00;7.67;;;;;;;15.41;100.00;102179.16;2063581;28;21038;-64
2022/10/12 01:41:55;;;;;;;11.03;8.03;;;;;;;15.42;100.00;102170.34;2063486;28;20432;-64
2022/10/12 01:42:57;;;;;;;12.00;8.33;;;;;;;15.08;100.00;102119.53;2063344;28;20417;-64
2022/10/12 01:43:57;;;;;;;12.17;7.97;;;;;;;15.39;100.00;102162.84;2063262;28;20425;-64
2022/10/12 01:45:03;;;;;;;12.73;8.20;;;;;;;15.44;100.00;102172.72;2064388;28;20444;-64
2022/10/12 01:46:24;;;;;;;11.50;8.47;;;;;;;15.45;100.00;102179.88;2063290;28;20265;-64
2022/10/12 01:47:24;;;;;;;11.50;7.93;;;;;;;15.45;100.00;102171.50;2062795;28;20935;-64
2022/10/12 01:48:25;;;;;;;13.87;8.27;;;;;;;15.45;100.00;102175.09;2063872;28;20468;-64
2022/10/12 01:49:30;;;;;;;11.70;7.80;;;;;;;15.44;100.00;102176.31;2063542;28;20823;-64
2022/10/12 01:50:39;;;;;;;14.40;8.37;;;;;;;15.44;100.00;102178.31;2063377;28;20198;-64
2022/10/12 01:51:57;;;;;;;11.70;8.93;;;;;;;14.94;100.00;102116.19;2063146;28;20441;-64
2022/10/12 01:53:17;;;;;;;15.20;8.33;;;;;;;15.41;100.00;102176.38;2066201;28;20436;-64
2022/10/12 01:54:29;;;;;;;10.57;8.40;;;;;;;15.42;100.00;102177.97;2063371;28;20421;-64
2022/10/12 01:55:38;;;;;;;14.53;8.50;;;;;;;15.42;100.00;102177.97;2063271;28;20949;-64
2022/10/12 01:56:46;;;;;;;13.87;8.67;;;;;;;15.43;100.00;102179.53;2063429;28;20424;-64
2022/10/12 01:58:14;;;;;;;14.87;8.40;;;;;;;15.39;100.00;102171.22;2062960;28;20492;-64
2022/10/12 01:59:29;;;;;;;12.73;7.97;;;;;;;15.42;100.00;102177.97;2063386;28;20449;-64
2022/10/12 02:00:39;;;;;;;13.40;8.67;;;;;;;15.41;100.00;102182.75;2062798;28;20903;-64
2022/10/12 02:01:56;;;;;;;13.20;8.57;;;;;;;15.39;100.00;102185.19;2063351;28;20433;-64
2022/10/12 02:03:19;;;;;;;11.63;8.10;;;;;;;15.38;100.00;102175.22;2063259;28;20813;-64
2022/10/12 02:04:44;;;;;;;14.23;8.10;;;;;;;15.31;100.00;102180.91;2063373;28;20452;-64
2022/10/12 02:05:44;;;;;;;11.23;7.53;;;;;;;15.32;100.00;102184.50;2064004;28;20428;-64
2022/10/12 02:06:50;;;;;;;15.67;8.17;;;;;;;15.01;100.00;102141.97;2063284;28;20453;-64
2022/10/12 02:08:00;;;;;;;24.67;8.93;;;;;;;15.31;100.00;102182.94;2063613;28;20293;-64
2022/10/12 02:09:04;;;;;;;18.37;8.50;;;;;;;15.26;100.00;102180.63;2063685;28;20540;-64
2022/10/12 02:10:09;;;;;;;18.70;8.60;;;;;;;15.05;100.00;102158.66;2063131;28;20492;-64
2022/10/12 02:11:12;;;;;;;14.23;8.10;;;;;;;15.23;100.00;102189.84;2063385;28;20480;-64
2022/10/12 02:12:19;;;;;;;18.13;9.23;;;;;;;15.23;100.00;102187.06;2062961;28;20452;-64
2022/10/12 02:13:23;;;;;;;14.23;8.30;;;;;;;15.22;100.00;102189.06;2063093;28;20452;-64
2022/10/12 02:14:33;;;;;;;17.00;9.27;;;;;;;15.23;100.00;102195.44;2063375;28;20628;-64
2022/10/12 02:15:37;;;;;;;12.20;8.60;;;;;;;15.22;100.00;102197.44;2062717;28;20476;-64
2022/10/12 02:16:53;;;;;;;19.07;8.53;;;;;;;15.20;100.00;102188.69;2062043;28;20434;-64
2022/10/12 02:17:55;;;;;;;16.70;7.97;;;;;;;15.23;100.00;102193.44;2063043;28;21021;-64
2022/10/12 02:18:58;;;;;;;12.40;7.93;;;;;;;15.23;100.00;102195.44;2063454;28;20449;-64
2022/10/12 02:20:00;;;;;;;14.53;7.90;;;;;;;15.27;100.00;102198.97;2063282;28;20972;-64
2022/10/12 02:21:02;;;;;;;14.30;8.53;;;;;;;15.25;100.00;102193.81;2063420;28;20926;-64
2022/10/12 02:22:05;;;;;;;13.77;7.87;;;;;;;15.21;100.00;102192.31;2063212;28;20468;-64
2022/10/12 02:23:06;;;;;;;15.23;8.07;;;;;;;15.22;100.00;102202.25;2062787;28;20430;-64
2022/10/12 02:24:10;;;;;;;12.23;8.33;;;;;;;15.23;100.00;102201.81;2062835;28;20445;-64
2022/10/12 02:25:15;;;;;;;14.50;8.40;;;;;;;15.18;100.00;102199.53;2063097;28;20652;-64
2022/10/12 02:26:16;;;;;;;10.20;8.50;;;;;;;15.18;100.00;102199.53;2063284;28;20456;-64
2022/10/12 02:27:19;;;;;;;13.70;8.60;;;;;;;15.17;100.00;102202.75;2062749;28;20535;-64
2022/10/12 02:28:24;;;;;;;11.83;7.97;;;;;;;15.17;100.00;102197.16;2063204;28;20441;-64
2022/10/12 02:29:34;;;;;;;11.67;8.10;;;;;;;15.14;100.00;102204.38;2063248;28;20453;-64
2022/10/12 02:30:43;;;;;;;13.00;8.63;;;;;;;15.18;100.00;102207.09;2062855;28;20446;-64
2022/10/12 02:32:19;;;;;;;17.83;8.87;;;;;;;15.14;100.00;102206.38;2063015;28;20445;-64
2022/10/12 02:33:41;;;;;;;22.90;9.57;;;;;;;15.15;100.00;102207.94;2063187;28;20453;-64
2022/10/12 02:35:07;;;;;;;19.87;9.13;;;;;;;15.14;100.00;102209.97;2062879;28;20425;-65
2022/10/12 02:36:14;;;;;;;20.03;8.80;;;;;;;15.09;100.00;102202.06;2060208;28;20444;-65
2022/10/12 02:37:27;;;;;;;19.73;9.37;;;;;;;15.14;100.00;102209.16;2062338;28;20420;-64
2022/10/12 02:38:33;;;;;;;19.10;8.67;;;;;;;15.17;100.00;102214.69;2062869;28;20925;-64
2022/10/12 02:39:43;;;;;;;13.33;8.20;;;;;;;15.18;100.00;102204.31;2063035;28;20945;-64
2022/10/12 02:40:57;;;;;;;14.47;8.10;;;;;;;15.22;100.00;102202.25;2063299;28;20431;-64
2022/10/12 02:42:03;;;;;;;14.23;7.93;;;;;;;15.21;100.00;102206.25;2063237;28;20447;-64
2022/10/12 02:43:14;;;;;;;14.40;8.50;;;;;;;15.22;100.00;102208.59;2062932;28;20430;-64
2022/10/12 02:44:21;;;;;;;15.60;8.67;;;;;;;15.23;100.00;102204.63;2062599;28;21095;-64
2022/10/12 02:45:23;;;;;;;11.37;8.20;;;;;;;15.21;100.00;102209.81;2062483;28;20654;-64
2022/10/12 02:46:25;;;;;;;12.83;7.90;;;;;;;15.23;100.00;102213.00;2062886;28;20582;-64
2022/10/12 02:47:28;;;;;;;11.53;7.80;;;;;;;15.26;100.00;102211.34;2063138;28;20445;-64
2022/10/12 02:48:30;;;;;;;14.27;9.03;;;;;;;15.26;100.00;102214.91;2063457;28;20453;-64
2022/10/12 02:49:32;;;;;;;16.10;8.20;;;;;;;15.29;100.00;102211.28;2063749;28;20449;-64
2022/10/12 02:50:33;;;;;;;12.67;8.37;;;;;;;15.17;100.00;102199.94;2062059;28;20432;-64
2022/10/12 02:51:34;;;;;;;11.53;8.00;;;;;;;14.80;100.00;102141.56;2062500;28;20455;-64
2022/10/12 02:52:35;;;;;;;12.13;8.67;;;;;;;15.30;100.00;102206.47;2061778;28;20437;-64
2022/10/12 02:53:36;;;;;;;12.63;8.53;;;;;;;15.31;100.00;102211.63;2066746;28;20468;-64
2022/10/12 02:54:37;;;;;;;12.37;8.10;;;;;;;15.32;100.00;102206.84;2062931;28;20292;-64
2022/10/12 02:55:46;;;;;;;9.73;7.70;;;;;;;15.32;100.00;102204.84;2063011;28;20558;-64
2022/10/12 02:56:47;;;;;;;12.70;8.70;;;;;;;15.28;100.00;102209.72;2062743;28;20189;-64
2022/10/12 02:57:47;;;;;;;14.53;8.37;;;;;;;15.30;100.00;102204.47;2063097;28;20434;-64
2022/10/12 02:58:48;;;;;;;14.90;7.83;;;;;;;15.29;100.00;102205.69;2063335;28;20181;-64
2022/10/12 02:59:48;;;;;;;13.00;9.20;;;;;;;15.26;100.00;102209.34;2063083;28;20197;-64
2022/10/12 03:00:49;;;;;;;17.70;9.10;;;;;;;15.24;100.00;102206.19;2062654;28;20197;-64
2022/10/12 03:01:49;;;;;;;20.60;9.10;;;;;;;15.22;100.00;102210.63;2063218;28;20224;-64
2022/10/12 03:02:50;;;;;;;14.00;9.37;;;;;;;15.18;100.00;102205.09;2062503;28;20243;-64
2022/10/12 03:03:50;;;;;;;14.50;8.47;;;;;;;15.07;100.00;102192.53;2062630;28;20915;-64
2022/10/12 03:04:51;;;;;;;14.30;8.73;;;;;;;15.19;100.00;102211.47;2062387;28;20182;-64
2022/10/12 03:05:51;;;;;;;12.90;8.70;;;;;;;15.17;100.00;102202.75;2062328;28;20414;-64
2022/10/12 03:06:51;;;;;;;13.50;8.47;;;;;;;15.17;100.00;102206.31;2063426;28;20189;-64
2022/10/12 03:07:52;;;;;;;17.97;8.67;;;;;;;15.17;100.00;102202.75;2062939;28;20686;-64
2022/10/12 03:08:55;;;;;;;14.63;8.33;;;;;;;15.17;100.00;102206.31;2063137;28;20190;-64
2022/10/12 03:09:56;;;;;;;12.07;8.93;;;;;;;15.18;100.00;102207.09;2062937;28;20187;-64
2022/10/12 03:11:04;;;;;;;14.13;9.23;;;;;;;15.18;100.00;102204.31;2062687;28;20484;-64
2022/10/12 03:12:05;;;;;;;12.33;8.40;;;;;;;15.08;100.00;102188.53;2062899;28;20190;-64
2022/10/12 03:13:05;;;;;;;11.97;8.63;;;;;;;15.17;100.00;102209.09;2062677;28;20449;-64
2022/10/12 03:14:05;;;;;;;10.50;8.77;;;;;;;15.17;100.00;102208.31;2062483;28;20236;-64
2022/10/12 03:15:06;;;;;;;13.70;8.60;;;;;;;15.20;100.00;102208.25;2062639;28;20625;-64
2022/10/12 03:16:09;;;;;;;10.23;8.37;;;;;;;15.20;100.00;102210.25;2063493;28;20179;-64
2022/10/12 03:17:10;;;;;;;12.63;8.60;;;;;;;15.22;100.00;102214.19;2062920;28;20644;-64
2022/10/12 03:18:10;;;;;;;11.60;8.20;;;;;;;15.17;100.00;102208.31;2062821;28;20521;-64
2022/10/12 03:19:11;;;;;;;11.30;7.87;;;;;;;15.20;100.00;102219.44;2062349;28;20193;-64
2022/10/12 03:20:11;;;;;;;12.70;8.07;;;;;;;14.67;100.00;102124.66;2062929;28;20638;-64
2022/10/12 03:21:12;;;;;;;16.77;8.80;;;;;;;15.22;100.00;102216.22;2062991;28;20190;-64
2022/10/12 03:22:13;;;;;;;9.90;7.97;;;;;;;14.97;100.00;102168.38;2062270;28;20252;-64
2022/10/12 03:23:13;;;;;;;11.37;8.30;;;;;;;15.23;100.00;102215.78;2063082;28;20186;-64
2022/10/12 03:24:13;;;;;;;14.13;9.00;;;;;;;15.24;100.00;102213.78;2063387;28;20999;-64
2022/10/12 03:25:14;;;;;;;12.40;8.53;;;;;;;14.95;100.00;102168.00;2062904;28;20193;-64
2022/10/12 03:26:15;;;;;;;13.50;9.03;;;;;;;15.26;100.00;102222.53;2062860;28;21104;-64
2022/10/12 03:27:15;;;;;;;18.67;9.73;;;;;;;15.24;100.00;102217.38;2063158;28;20451;-64
2022/10/12 03:28:16;;;;;;;15.50;8.87;;;;;;;15.14;100.00;102207.16;2062857;28;20194;-64
2022/10/12 03:29:16;;;;;;;13.87;9.13;;;;;;;15.25;100.00;102215.34;2062786;28;20208;-64
2022/10/12 03:30:17;;;;;;;13.97;9.33;;;;;;;15.26;100.00;102219.75;2062584;28;20188;-64
2022/10/12 03:31:17;;;;;;;17.40;9.33;;;;;;;15.27;100.00;102219.28;2063102;28;20186;-64
2022/10/12 03:32:18;;;;;;;15.97;9.00;;;;;;;15.25;100.00;102218.94;2063008;28;20214;-64
2022/10/12 03:33:19;;;;;;;16.37;9.67;;;;;;;15.27;100.00;102218.53;2062728;28;20198;-64
2022/10/12 03:34:19;;;;;;;17.07;9.20;;;;;;;15.27;100.00;102226.91;2063033;28;20634;-64
2022/10/12 03:35:19;;;;;;;23.47;9.83;;;;;;;15.26;100.00;102228.88;2062970;28;20308;-64
2022/10/12 03:36:20;;;;;;;14.53;8.50;;;;;;;15.27;100.00;102224.88;2062676;28;21491;-64
2022/10/12 03:37:21;;;;;;;15.73;9.37;;;;;;;15.22;100.00;102211.41;2062965;28;20309;-64
2022/10/12 03:38:21;;;;;;;16.03;9.57;;;;;;;15.25;100.00;102213.34;2062806;28;20586;-64
2022/10/12 03:39:21;;;;;;;19.10;9.33;;;;;;;15.31;100.00;102230.44;2062857;28;21621;-64
2022/10/12 03:40:22;;;;;;;16.70;9.37;;;;;;;15.31;100.00;102222.81;2063388;28;20217;-64
2022/10/12 03:41:22;;;;;;;14.07;8.97;;;;;;;15.31;100.00;102219.25;2063280;28;20198;-64
2022/10/12 03:42:23;;;;;;;12.50;8.67;;;;;;;15.32;100.00;102216.00;2062401;28;20900;-64
2022/10/12 03:43:23;;;;;;;15.07;9.30;;;;;;;15.31;100.00;102222.03;2062410;28;21010;-64
2022/10/12 03:44:24;;;;;;;11.50;9.60;;;;;;;15.30;100.00;102218.44;2062757;28;20194;-64
2022/10/12 03:45:24;;;;;;;17.17;9.83;;;;;;;15.26;100.00;102209.34;2062943;28;22099;-64
2022/10/12 03:46:24;;;;;;;13.47;9.23;;;;;;;15.32;100.00;102215.22;2062738;28;20276;-64
2022/10/12 03:47:25;;;;;;;14.03;9.27;;;;;;;15.24;100.00;102210.97;2062902;28;20186;-64
2022/10/12 03:48:25;;;;;;;11.93;8.60;;;;;;;15.32;100.00;102218.03;2063267;28;20178;-64
2022/10/12 03:49:26;;;;;;;11.00;8.43;;;;;;;15.33;100.00;102225.22;2063119;28;20262;-64
2022/10/12 03:50:26;;;;;;;10.80;9.07;;;;;;;15.10;100.00;102194.47;2062792;28;20570;-64
2022/10/12 03:51:27;;;;;;;13.30;9.17;;;;;;;15.16;100.00;102192.78;2063086;28;20198;-64
2022/10/12 03:52:27;;;;;;;12.67;8.93;;;;;;;15.34;100.00;102224.78;2061858;28;20220;-64
2022/10/12 03:53:28;;;;;;;12.97;9.00;;;;;;;15.34;100.00;102218.41;2066003;28;20690;-64
2022/10/12 03:54:29;;;;;;;14.90;8.67;;;;;;;15.37;100.00;102221.13;2062763;28;20183;-64
2022/10/12 03:55:30;;;;;;;12.30;8.70;;;;;;;15.37;100.00;102217.56;2062931;28;20225;-64
2022/10/12 03:56:30;;;;;;;13.53;9.30;;;;;;;15.35;100.00;102220.78;2063314;28;20951;-64
2022/10/12 03:57:31;;;;;;;14.37;9.57;;;;;;;15.33;100.00;102212.06;2063042;28;20202;-64
2022/10/12 03:58:31;;;;;;;15.10;9.50;;;;;;;15.33;100.00;102216.84;2062417;28;20214;-64
2022/10/12 03:59:31;;;;;;;15.37;9.13;;;;;;;14.99;100.00;102168.75;2063123;28;20260;-64
2022/10/12 04:00:32;;;;;;;15.87;9.27;;;;;;;15.34;100.00;102218.41;2062928;28;20221;-64
2022/10/12 04:01:32;;;;;;;16.57;9.30;;;;;;;15.28;100.00;102217.28;2061299;28;20264;-65
2022/10/12 04:02:33;;;;;;;19.07;10.10;;;;;;;15.28;100.00;102222.88;2056746;28;20186;-64
2022/10/12 04:03:33;;;;;;;16.00;8.53;;;;;;;15.27;100.00;102221.31;2057167;28;21649;-64
2022/10/12 04:04:34;;;;;;;15.70;8.70;;;;;;;15.30;100.00;102218.44;2058964;28;20262;-64
2022/10/12 04:05:35;;;;;;;13.00;8.87;;;;;;;15.29;100.00;102221.66;2057737;28;20198;-64
2022/10/12 04:06:35;;;;;;;13.20;8.03;;;;;;;15.17;100.00;102200.72;2057703;28;22226;-64
2022/10/12 04:07:36;;;;;;;10.60;8.20;;;;;;;15.31;100.00;102224.84;2057608;28;20240;-64
2022/10/12 04:08:36;;;;;;;15.77;8.30;;;;;;;15.31;100.00;102225.59;2057575;28;21287;-64
2022/10/12 04:09:36;;;;;;;17.70;8.50;;;;;;;15.32;100.00;102223.63;2058469;28;20186;-64
2022/10/12 04:10:37;;;;;;;11.17;8.80;;;;;;;15.31;100.00;102222.81;2059053;28;20260;-64
2022/10/12 04:11:37;;;;;;;12.43;9.80;;;;;;;15.32;100.00;102223.63;2057577;28;21471;-64
2022/10/12 04:12:38;;;;;;;16.57;9.30;;;;;;;15.29;100.00;102222.47;2057727;28;20191;-64
2022/10/12 04:13:38;;;;;;;15.53;8.60;;;;;;;15.28;100.00;102225.69;2057782;28;20237;-64
2022/10/12 04:14:39;;;;;;;13.77;7.77;;;;;;;15.28;100.00;102225.69;2058670;28;20183;-64
2022/10/12 04:15:39;;;;;;;13.13;8.10;;;;;;;15.21;100.00;102218.19;2060151;28;20700;-64
2022/10/12 04:16:40;;;;;;;11.93;8.13;;;;;;;15.24;100.00;102219.34;2060403;28;20537;-64
2022/10/12 04:17:40;;;;;;;13.87;8.30;;;;;;;15.25;100.00;102226.50;2059571;28;20225;-64
2022/10/12 04:18:41;;;;;;;11.23;8.37;;;;;;;15.23;100.00;102224.16;2059817;28;20191;-64
2022/10/12 04:19:41;;;;;;;10.57;8.10;;;;;;;15.22;100.00;102222.56;2059906;28;20221;-64
2022/10/12 04:20:42;;;;;;;11.60;8.40;;;;;;;15.21;100.00;102223.78;2059416;28;20727;-64
2022/10/12 04:21:42;;;;;;;11.00;8.07;;;;;;;15.20;100.00;102222.22;2061380;28;20184;-64
2022/10/12 04:22:43;;;;;;;11.10;8.47;;;;;;;15.07;100.00;102207.28;2058717;28;20538;-64
2022/10/12 04:23:43;;;;;;;15.60;8.37;;;;;;;15.14;100.00;102221.13;2059202;28;20221;-64
2022/10/12 04:24:44;;;;;;;15.13;9.57;;;;;;;15.15;100.00;102231.09;2059296;28;20191;-64
2022/10/12 04:25:45;;;;;;;15.40;8.77;;;;;;;15.14;100.00;102228.72;2059735;28;20229;-64
2022/10/12 04:26:45;;;;;;;12.93;10.07;;;;;;;15.10;100.00;102225.97;2059594;28;20680;-64
2022/10/12 04:27:46;;;;;;;12.43;8.90;;;;;;;15.13;100.00;102227.94;2061455;28;20508;-64
2022/10/12 04:28:46;;;;;;;17.50;9.07;;;;;;;15.10;100.00;102222.38;2059680;28;21187;-64
2022/10/12 04:29:46;;;;;;;14.40;9.50;;;;;;;15.12;100.00;102231.91;2059840;28;20194;-64
2022/10/12 04:30:47;;;;;;;19.03;10.27;;;;;;;15.14;100.00;102232.31;2059611;28;20559;-64
2022/10/12 04:31:47;;;;;;;12.73;9.53;;;;;;;15.10;100.00;102225.97;2059876;28;20203;-64
2022/10/12 04:32:48;;;;;;;20.50;10.37;;;;;;;15.15;100.00;102233.06;2059154;28;20576;-64
2022/10/12 04:33:55;;;;;;;12.17;9.53;;;;;;;15.13;100.00;102241.09;2061257;28;20266;-64
2022/10/12 04:34:56;;;;;;;13.07;9.30;;;;;;;15.14;100.00;102235.09;2061623;28;20211;-64
2022/10/12 04:35:56;;;;;;;11.80;9.70;;;;;;;14.35;100.00;102116.00;2059505;28;20453;-64
2022/10/12 04:36:56;;;;;;;14.33;9.67;;;;;;;14.76;100.00;102174.34;2060062;28;20301;-64
2022/10/12 04:37:57;;;;;;;15.50;9.80;;;;;;;15.12;100.00;102240.28;2059201;28;20346;-64
2022/10/12 04:38:57;;;;;;;14.90;12.43;;;;;;;15.02;100.00;102218.16;2059851;28;20604;-64
2022/10/12 04:39:58;;;;;;;13.90;11.57;;;;;;;15.12;100.00;102234.72;2060677;28;20544;-64
2022/10/12 04:40:58;;;;;;;14.87;11.17;;;;;;;14.68;100.00;102170.88;2061601;28;20193;-64
2022/10/12 04:41:59;;;;;;;19.00;11.60;;;;;;;15.11;100.00;102241.53;2055119;28;20402;-64
2022/10/12 04:42:59;;;;;;;14.90;12.47;;;;;;;15.07;100.00;102232.41;2056301;28;20233;-65
2022/10/12 04:44:00;;;;;;;20.97;12.80;;;;;;;15.13;100.00;102241.09;2058093;28;20229;-64
2022/10/12 04:45:00;;;;;;;18.60;12.47;;;;;;;15.13;100.00;102238.31;2060098;28;20697;-64
2022/10/12 04:46:01;;;;;;;25.27;17.70;;;;;;;15.12;100.00;102231.16;2061463;28;20178;-64
2022/10/12 04:47:01;;;;;;;23.83;16.20;;;;;;;15.07;100.00;102226.81;2059757;28;20731;-64
2022/10/12 04:48:02;;;;;;;22.13;14.93;;;;;;;14.98;100.00;102215.44;2060241;28;20268;-64
2022/10/12 04:49:02;;;;;;;22.53;14.83;;;;;;;15.13;100.00;102230.72;2060115;28;20301;-64
2022/10/12 04:50:03;;;;;;;19.30;14.90;;;;;;;15.14;100.00;102237.09;2058298;28;20876;-65
2022/10/12 04:51:04;;;;;;;18.63;13.40;;;;;;;15.11;100.00;102249.91;2059191;28;20341;-64
2022/10/12 04:52:05;;;;;;;20.67;13.30;;;;;;;15.09;100.00;102235.59;2060364;28;20514;-64